EWG2PB EDDN-LIMC
Flight info
| Callsign | EWG2PB |
|---|---|
| Flight time | N/A |
| Altitude | 30000 |
| Route | BOLSI1C BOLSI Y166 DKB N869 TEDGO DCT SONOM DCT GERSA DCT SOSON DCT DEGAD Z424 RIXUV |
| Aircraft | A20N/M-SDE2E3FGHIRWXY/LB1 |
Departure
| Time | 2026-05-06 16:32 |
|---|---|
| Airport | Nuremberg Airport (EDDN) |
Arrival
| Time | N/A |
|---|---|
| Airport | Milan Malpensa International Airport (LIMC) |
| Time | Latitude | Longitude | Altitude | Speed | Heading |
|---|---|---|---|---|---|
| 2026-05-06 16:19 | 49.49522 | 11.07726 | 1029 ft | 0 kts | 188° |
| 2026-05-06 16:25 | 49.49530 | 11.07727 | 1029 ft | 3 kts | 188° |
| 2026-05-06 16:25 | 49.49552 | 11.07732 | 1029 ft | 3 kts | 188° |
| 2026-05-06 16:26 | 49.49574 | 11.07736 | 1029 ft | 3 kts | 162° |
| 2026-05-06 16:26 | 49.49588 | 11.07719 | 1025 ft | 2 kts | 104° |
| 2026-05-06 16:26 | 49.49589 | 11.07709 | 1029 ft | 0 kts | 98° |
| 2026-05-06 16:27 | 49.49589 | 11.07722 | 1025 ft | 3 kts | 89° |
| 2026-05-06 16:28 | 49.49612 | 11.07758 | 1027 ft | 8 kts | 24° |
| 2026-05-06 16:28 | 49.49650 | 11.07832 | 1027 ft | 11 kts | 91° |
| 2026-05-06 16:28 | 49.49625 | 11.07876 | 1025 ft | 1 kts | 215° |
| 2026-05-06 16:28 | 49.49634 | 11.07810 | 1024 ft | 13 kts | 303° |
| 2026-05-06 16:29 | 49.49689 | 11.07683 | 1024 ft | 16 kts | 279° |
| 2026-05-06 16:29 | 49.49707 | 11.07499 | 1028 ft | 19 kts | 279° |
| 2026-05-06 16:29 | 49.49732 | 11.07274 | 1024 ft | 24 kts | 278° |
| 2026-05-06 16:29 | 49.49759 | 11.07004 | 1022 ft | 27 kts | 279° |
| 2026-05-06 16:30 | 49.49787 | 11.06712 | 1021 ft | 28 kts | 276° |
| 2026-05-06 16:30 | 49.49802 | 11.06515 | 1021 ft | 28 kts | 278° |
| 2026-05-06 16:30 | 49.49843 | 11.06125 | 1024 ft | 27 kts | 279° |
| 2026-05-06 16:30 | 49.49911 | 11.05965 | 1029 ft | 17 kts | 335° |
| 2026-05-06 16:31 | 49.50024 | 11.05943 | 1030 ft | 15 kts | 18° |
| 2026-05-06 16:31 | 49.50045 | 11.06016 | 1029 ft | 8 kts | 97° |
| 2026-05-06 16:31 | 49.50043 | 11.06036 | 1028 ft | 4 kts | 98° |
| 2026-05-06 16:31 | 49.50005 | 11.06441 | 1021 ft | 77 kts | 98° |
| 2026-05-06 16:32 | 49.49889 | 11.07600 | 1026 ft | 139 kts | 98° |
| 2026-05-06 16:32 | 49.49716 | 11.09289 | 1269 ft | 167 kts | 98° |
| 2026-05-06 16:32 | 49.49516 | 11.11036 | 2001 ft | 167 kts | 99° |
| 2026-05-06 16:32 | 49.49301 | 11.12823 | 2620 ft | 173 kts | 101° |
| 2026-05-06 16:33 | 49.49076 | 11.14744 | 3011 ft | 193 kts | 99° |
| 2026-05-06 16:33 | 49.48873 | 11.16872 | 3411 ft | 213 kts | 98° |
| 2026-05-06 16:33 | 49.48669 | 11.19233 | 3808 ft | 233 kts | 98° |
| 2026-05-06 16:34 | 49.47102 | 11.23847 | 4666 ft | 264 kts | 148° |
| 2026-05-06 16:34 | 49.45403 | 11.24839 | 5513 ft | 261 kts | 175° |
| 2026-05-06 16:34 | 49.43585 | 11.24763 | 6382 ft | 262 kts | 186° |
| 2026-05-06 16:34 | 49.41756 | 11.24532 | 7246 ft | 264 kts | 186° |
| 2026-05-06 16:35 | 49.39924 | 11.24302 | 8129 ft | 265 kts | 186° |
| 2026-05-06 16:35 | 49.38077 | 11.24078 | 8979 ft | 267 kts | 186° |
| 2026-05-06 16:35 | 49.36215 | 11.23857 | 9831 ft | 269 kts | 186° |
| 2026-05-06 16:35 | 49.34336 | 11.23635 | 10564 ft | 273 kts | 187° |
| 2026-05-06 16:36 | 49.32518 | 11.22841 | 11280 ft | 274 kts | 209° |
| 2026-05-06 16:36 | 49.31047 | 11.20963 | 11972 ft | 280 kts | 232° |
| 2026-05-06 16:36 | 49.30196 | 11.18258 | 12655 ft | 288 kts | 253° |
| 2026-05-06 16:36 | 49.29702 | 11.15202 | 13030 ft | 306 kts | 253° |
| 2026-05-06 16:37 | 49.29185 | 11.11976 | 13230 ft | 326 kts | 253° |
| 2026-05-06 16:37 | 49.28626 | 11.08512 | 13554 ft | 340 kts | 253° |
| 2026-05-06 16:37 | 49.28048 | 11.04968 | 14169 ft | 344 kts | 253° |
| 2026-05-06 16:37 | 49.27460 | 11.01391 | 14809 ft | 348 kts | 253° |
| 2026-05-06 16:38 | 49.26861 | 10.97775 | 15436 ft | 352 kts | 253° |
| 2026-05-06 16:38 | 49.26255 | 10.94131 | 16065 ft | 355 kts | 253° |
| 2026-05-06 16:38 | 49.25641 | 10.90446 | 16666 ft | 359 kts | 253° |
| 2026-05-06 16:38 | 49.25018 | 10.86728 | 17290 ft | 362 kts | 253° |
| 2026-05-06 16:39 | 49.24388 | 10.82974 | 17885 ft | 366 kts | 253° |
| 2026-05-06 16:39 | 49.23751 | 10.79186 | 18434 ft | 369 kts | 253° |
| 2026-05-06 16:39 | 49.23108 | 10.75366 | 18976 ft | 372 kts | 253° |
| 2026-05-06 16:39 | 49.22464 | 10.71556 | 19501 ft | 374 kts | 253° |
| 2026-05-06 16:40 | 49.21808 | 10.67685 | 20023 ft | 377 kts | 253° |
| 2026-05-06 16:40 | 49.21145 | 10.63780 | 20536 ft | 381 kts | 253° |
| 2026-05-06 16:40 | 49.20474 | 10.59836 | 21053 ft | 384 kts | 253° |
| 2026-05-06 16:40 | 49.19798 | 10.55869 | 21559 ft | 387 kts | 253° |
| 2026-05-06 16:41 | 49.19113 | 10.51866 | 22056 ft | 390 kts | 253° |
| 2026-05-06 16:41 | 49.18433 | 10.47891 | 22529 ft | 393 kts | 253° |
| 2026-05-06 16:41 | 49.17735 | 10.43826 | 23006 ft | 397 kts | 253° |
| 2026-05-06 16:41 | 49.17030 | 10.39727 | 23462 ft | 400 kts | 252° |
| 2026-05-06 16:42 | 49.16319 | 10.35604 | 23888 ft | 402 kts | 252° |
| 2026-05-06 16:42 | 49.15603 | 10.31458 | 24289 ft | 405 kts | 252° |
| 2026-05-06 16:42 | 49.14805 | 10.27325 | 24686 ft | 406 kts | 247° |
| 2026-05-06 16:42 | 49.13652 | 10.23399 | 25080 ft | 405 kts | 239° |
| 2026-05-06 16:43 | 49.12141 | 10.19764 | 25470 ft | 405 kts | 231° |
| 2026-05-06 16:43 | 49.10377 | 10.16408 | 25842 ft | 406 kts | 228° |
| 2026-05-06 16:43 | 49.08594 | 10.13050 | 26232 ft | 408 kts | 229° |
| 2026-05-06 16:43 | 49.06808 | 10.09672 | 26616 ft | 410 kts | 229° |
| 2026-05-06 16:44 | 49.05013 | 10.06275 | 26981 ft | 412 kts | 229° |
| 2026-05-06 16:44 | 49.03207 | 10.02862 | 27337 ft | 414 kts | 228° |
| 2026-05-06 16:44 | 49.01391 | 9.99433 | 27685 ft | 416 kts | 228° |
| 2026-05-06 16:44 | 48.99588 | 9.96037 | 28030 ft | 418 kts | 228° |
| 2026-05-06 16:45 | 48.97753 | 9.92584 | 28354 ft | 420 kts | 228° |
| 2026-05-06 16:45 | 48.95911 | 9.89124 | 28667 ft | 422 kts | 228° |
| 2026-05-06 16:45 | 48.94060 | 9.85651 | 28981 ft | 424 kts | 228° |
| 2026-05-06 16:45 | 48.92198 | 9.82162 | 29289 ft | 425 kts | 228° |
| 2026-05-06 16:46 | 48.90324 | 9.78657 | 29584 ft | 427 kts | 228° |
| 2026-05-06 16:46 | 48.88444 | 9.75142 | 29810 ft | 430 kts | 228° |
| 2026-05-06 16:46 | 48.86555 | 9.71617 | 29819 ft | 430 kts | 228° |
| 2026-05-06 16:47 | 48.82784 | 9.64594 | 29818 ft | 428 kts | 228° |
| 2026-05-06 16:47 | 48.79031 | 9.57627 | 29827 ft | 429 kts | 228° |
| 2026-05-06 16:48 | 48.75246 | 9.50617 | 29828 ft | 429 kts | 228° |
| 2026-05-06 16:48 | 48.72098 | 9.44801 | 29829 ft | 429 kts | 228° |
| 2026-05-06 16:49 | 48.68302 | 9.37799 | 29831 ft | 429 kts | 228° |
| 2026-05-06 16:49 | 48.64499 | 9.30836 | 29828 ft | 429 kts | 225° |
| 2026-05-06 16:50 | 48.59825 | 9.25408 | 29830 ft | 423 kts | 205° |
| 2026-05-06 16:50 | 48.54293 | 9.22580 | 29830 ft | 422 kts | 195° |
| 2026-05-06 16:51 | 48.48661 | 9.20111 | 29836 ft | 421 kts | 195° |
| 2026-05-06 16:51 | 48.43040 | 9.17638 | 29844 ft | 421 kts | 195° |
| 2026-05-06 16:52 | 48.37455 | 9.15186 | 29847 ft | 420 kts | 195° |
| 2026-05-06 16:52 | 48.31833 | 9.12725 | 29849 ft | 420 kts | 195° |
| 2026-05-06 16:53 | 48.26216 | 9.10272 | 29859 ft | 420 kts | 195° |
| 2026-05-06 16:53 | 48.20599 | 9.07824 | 29859 ft | 420 kts | 195° |
| 2026-05-06 16:54 | 48.14984 | 9.05382 | 29861 ft | 420 kts | 195° |
| 2026-05-06 16:54 | 48.09406 | 9.02962 | 29865 ft | 420 kts | 195° |
| 2026-05-06 16:55 | 48.03793 | 9.00533 | 29865 ft | 419 kts | 195° |
| 2026-05-06 16:55 | 47.98180 | 8.98109 | 29871 ft | 420 kts | 195° |
| 2026-05-06 16:56 | 47.92559 | 8.95688 | 29873 ft | 420 kts | 196° |
| 2026-05-06 16:56 | 47.86925 | 8.93265 | 29875 ft | 421 kts | 196° |
| 2026-05-06 16:57 | 47.81327 | 8.90864 | 29880 ft | 421 kts | 196° |
| 2026-05-06 16:57 | 47.75707 | 8.88386 | 29886 ft | 421 kts | 198° |
| 2026-05-06 16:58 | 47.70154 | 8.85586 | 29891 ft | 421 kts | 199° |
| 2026-05-06 16:58 | 47.64637 | 8.82811 | 29889 ft | 421 kts | 199° |
| 2026-05-06 16:59 | 47.59082 | 8.80064 | 29890 ft | 420 kts | 199° |
| 2026-05-06 16:59 | 47.53523 | 8.77332 | 29910 ft | 420 kts | 199° |
| 2026-05-06 17:00 | 47.47978 | 8.74613 | 29910 ft | 420 kts | 199° |
| 2026-05-06 17:00 | 47.42428 | 8.71898 | 29914 ft | 420 kts | 199° |
| 2026-05-06 17:01 | 47.36886 | 8.69192 | 29912 ft | 419 kts | 199° |
| 2026-05-06 17:01 | 47.31343 | 8.66491 | 29911 ft | 419 kts | 199° |
| 2026-05-06 17:02 | 47.25837 | 8.63814 | 29911 ft | 418 kts | 200° |
| 2026-05-06 17:02 | 47.20310 | 8.61132 | 29915 ft | 418 kts | 200° |
| 2026-05-06 17:03 | 47.14773 | 8.58453 | 29897 ft | 418 kts | 200° |
| 2026-05-06 17:03 | 47.09252 | 8.55786 | 29912 ft | 417 kts | 200° |
| 2026-05-06 17:04 | 47.03614 | 8.53888 | 29911 ft | 421 kts | 188° |
| 2026-05-06 17:04 | 46.97728 | 8.54083 | 29907 ft | 426 kts | 178° |
| 2026-05-06 17:05 | 46.91833 | 8.54967 | 29916 ft | 426 kts | 178° |
| 2026-05-06 17:05 | 46.85944 | 8.55819 | 29909 ft | 426 kts | 179° |
| 2026-05-06 17:06 | 46.80085 | 8.56654 | 29910 ft | 427 kts | 178° |
| 2026-05-06 17:06 | 46.74191 | 8.57501 | 29900 ft | 423 kts | 179° |
| 2026-05-06 17:07 | 46.68321 | 8.58340 | 29901 ft | 420 kts | 179° |
| 2026-05-06 17:07 | 46.62474 | 8.59174 | 29906 ft | 423 kts | 179° |
| 2026-05-06 17:08 | 46.56632 | 8.60006 | 29834 ft | 421 kts | 180° |